Time;durP1;ratioP1;P1;durP2;ratioP2;P2;SDS_P1;SDS_P2;PMS_P1;PMS_P2;Temp;Humidity;BMP_temperature;BMP_pressure;BME280_temperature;BME280_humidity;BME280_pressure;Samples;Min_cycle;Max_cycle;Signal;HPM_P1;HPM_P2
2022/08/30 00:01:30;;;;;;;24.42;17.30;;;18.20;99.90;;;;;;5057528;28;20021;-58
2022/08/30 00:03:58;;;;;;;25.35;18.83;;;18.20;99.90;;;;;;5057467;28;20025;-58
2022/08/30 00:06:25;;;;;;;27.48;17.08;;;18.20;99.90;;;;;;5057762;28;20021;-58
2022/08/30 00:08:52;;;;;;;23.27;18.98;;;18.10;99.90;;;;;;5057791;28;20029;-58
2022/08/30 00:11:21;;;;;;;23.83;17.70;;;18.10;99.90;;;;;;5057318;28;20032;-58
2022/08/30 00:13:51;;;;;;;36.67;17.10;;;18.10;99.90;;;;;;5057584;28;20036;-58
2022/08/30 00:16:18;;;;;;;25.40;17.27;;;18.00;99.90;;;;;;5057452;28;20107;-58
2022/08/30 00:18:45;;;;;;;22.92;16.58;;;18.00;99.90;;;;;;5057169;28;20563;-58
2022/08/30 00:21:11;;;;;;;27.58;16.67;;;18.10;99.90;;;;;;5057294;28;20029;-58
2022/08/30 00:23:37;;;;;;;23.60;17.77;;;18.10;99.90;;;;;;5057519;28;20056;-58
2022/08/30 00:26:04;;;;;;;28.42;18.48;;;18.10;99.90;;;;;;5057292;28;20041;-58
2022/08/30 00:28:31;;;;;;;23.80;17.13;;;18.00;99.90;;;;;;5057689;28;20143;-58
2022/08/30 00:30:56;;;;;;;28.73;19.35;;;18.10;99.90;;;;;;5057460;28;20082;-58
2022/08/30 00:33:22;;;;;;;24.38;17.70;;;18.00;99.90;;;;;;5057236;28;20501;-58
2022/08/30 00:35:49;;;;;;;24.17;17.38;;;18.10;99.90;;;;;;5057085;28;20025;-58
2022/08/30 00:38:15;;;;;;;26.73;17.52;;;18.10;99.90;;;;;;5056889;28;20037;-58
2022/08/30 00:40:43;;;;;;;32.53;18.70;;;17.90;99.90;;;;;;5056968;28;20020;-58
2022/08/30 00:43:15;;;;;;;32.00;18.40;;;17.90;99.90;;;;;;5056956;28;20028;-58
2022/08/30 00:45:41;;;;;;;24.33;18.48;;;17.90;99.90;;;;;;5057080;28;20048;-58
2022/08/30 00:48:07;;;;;;;27.27;19.48;;;17.90;99.90;;;;;;5056486;28;20071;-58
2022/08/30 00:50:41;;;;;;;26.27;18.23;;;17.90;99.90;;;;;;5077023;28;20048;-58
2022/08/30 00:53:11;;;;;;;30.85;19.30;;;17.90;99.90;;;;;;5077106;28;20096;-58
2022/08/30 00:55:38;;;;;;;23.58;19.00;;;18.00;99.90;;;;;;5076767;28;20067;-58
2022/08/30 00:58:07;;;;;;;37.75;19.40;;;18.00;99.90;;;;;;5076674;28;20032;-58
2022/08/30 01:00:34;;;;;;;32.55;19.75;;;18.00;99.90;;;;;;5076525;28;20037;-58
2022/08/30 01:03:00;;;;;;;35.70;19.48;;;18.00;99.90;;;;;;5076633;28;20229;-58
2022/08/30 01:05:26;;;;;;;28.02;19.15;;;18.00;99.90;;;;;;5076851;28;20082;-58
2022/08/30 01:07:51;;;;;;;30.58;19.83;;;18.00;99.90;;;;;;5076434;28;20060;-58
2022/08/30 01:10:18;;;;;;;28.40;20.20;;;17.80;99.90;;;;;;5076472;28;20035;-58
2022/08/30 01:12:44;;;;;;;29.35;19.38;;;17.90;99.90;;;;;;5076500;28;20043;-58
2022/08/30 01:15:13;;;;;;;36.00;19.35;;;17.90;99.90;;;;;;5076312;28;20466;-58
2022/08/30 01:17:44;;;;;;;28.42;18.95;;;18.00;99.90;;;;;;5076352;28;20028;-58
2022/08/30 01:20:19;;;;;;;28.55;19.33;;;17.90;99.90;;;;;;5076589;28;20024;-58
2022/08/30 01:22:48;;;;;;;27.67;17.45;;;17.90;99.90;;;;;;5076301;28;20390;-58
2022/08/30 01:25:20;;;;;;;30.02;18.50;;;17.90;99.90;;;;;;5076159;28;20304;-58
2022/08/30 01:27:52;;;;;;;33.28;18.92;;;17.80;99.90;;;;;;5076175;28;20035;-58
2022/08/30 01:30:19;;;;;;;29.45;17.80;;;17.90;99.90;;;;;;5075931;28;20024;-58
2022/08/30 01:32:46;;;;;;;23.48;17.92;;;17.90;99.90;;;;;;5076112;28;20055;-58
2022/08/30 01:35:16;;;;;;;27.75;19.05;;;17.90;99.90;;;;;;5076171;28;20039;-58
2022/08/30 01:37:43;;;;;;;26.52;18.25;;;17.90;99.90;;;;;;5075850;28;20029;-58
2022/08/30 01:40:11;;;;;;;27.17;18.92;;;18.00;99.90;;;;;;5076297;28;20036;-58
2022/08/30 01:42:37;;;;;;;24.90;17.90;;;18.00;99.90;;;;;;5076013;28;20063;-58
2022/08/30 01:45:06;;;;;;;26.83;19.08;;;18.00;99.90;;;;;;5075888;28;20033;-58
2022/08/30 01:47:32;;;;;;;26.42;19.25;;;18.00;99.90;;;;;;5075968;28;20028;-58
2022/08/30 01:49:58;;;;;;;24.67;18.85;;;18.00;99.90;;;;;;5074772;28;20445;-58
2022/08/30 01:52:24;;;;;;;29.05;19.45;;;18.00;99.90;;;;;;5074778;28;20037;-58
2022/08/30 01:54:51;;;;;;;24.38;18.98;;;18.00;99.90;;;;;;5074885;28;20043;-58
2022/08/30 01:57:20;;;;;;;29.35;17.73;;;18.00;99.90;;;;;;5074476;28;20044;-58
2022/08/30 01:59:46;;;;;;;28.48;17.85;;;18.00;99.90;;;;;;5073809;28;20200;-58
2022/08/30 02:02:15;;;;;;;28.20;18.20;;;18.10;99.90;;;;;;5074373;28;20101;-58
2022/08/30 02:04:42;;;;;;;23.02;16.90;;;18.10;99.90;;;;;;5074512;28;20381;-58
2022/08/30 02:07:08;;;;;;;22.67;17.48;;;18.00;99.90;;;;;;5074481;28;20071;-58
2022/08/30 02:09:36;;;;;;;21.70;15.85;;;18.00;99.90;;;;;;5074691;28;20378;-58
2022/08/30 02:12:05;;;;;;;20.77;15.90;;;18.10;99.90;;;;;;5074252;28;20462;-58
2022/08/30 02:14:31;;;;;;;27.05;15.90;;;18.00;99.90;;;;;;5074427;28;20390;-58
2022/08/30 02:16:56;;;;;;;21.63;15.60;;;17.90;99.90;;;;;;5056310;28;20028;-58
2022/08/30 02:19:22;;;;;;;24.05;16.52;;;17.90;99.90;;;;;;5074282;28;20430;-58
2022/08/30 02:21:49;;;;;;;24.20;17.20;;;17.90;99.90;;;;;;5074109;28;20486;-58
2022/08/30 02:24:15;;;;;;;28.65;17.85;;;17.90;99.90;;;;;;5074287;28;20039;-58
2022/08/30 02:26:41;;;;;;;25.23;17.20;;;17.70;99.90;;;;;;5056281;28;20021;-58
2022/08/30 02:29:07;;;;;;;24.00;17.33;;;17.70;99.90;;;;;;5074151;28;20545;-58
2022/08/30 02:31:33;;;;;;;25.65;17.98;;;17.80;99.90;;;;;;5073989;28;20449;-58
2022/08/30 02:33:59;;;;;;;26.05;18.40;;;17.80;99.90;;;;;;5074252;28;20033;-58
2022/08/30 02:36:25;;;;;;;27.02;18.23;;;17.90;99.90;;;;;;5074399;28;20079;-58
2022/08/30 02:38:52;;;;;;;45.35;20.33;;;17.80;99.90;;;;;;5073943;28;20024;-58
2022/08/30 02:41:19;;;;;;;44.22;20.73;;;17.80;99.90;;;;;;5073881;28;20024;-58
2022/08/30 02:43:45;;;;;;;46.70;19.75;;;17.90;99.90;;;;;;5074082;28;20059;-58
2022/08/30 02:46:12;;;;;;;34.90;19.15;;;17.90;99.90;;;;;;5073892;28;20028;-58
2022/08/30 02:48:38;;;;;;;40.73;20.50;;;17.90;99.90;;;;;;5028926;28;1279574;-58
2022/08/30 02:51:09;;;;;;;44.17;19.98;;;17.90;99.90;;;;;;5074658;28;20265;-58
2022/08/30 02:53:36;;;;;;;40.47;18.63;;;17.90;99.90;;;;;;5074637;28;20064;-58
2022/08/30 02:56:03;;;;;;;44.78;20.02;;;18.00;99.90;;;;;;5074435;28;20636;-58
2022/08/30 02:58:29;;;;;;;36.13;20.05;;;18.00;99.90;;;;;;5074344;28;20037;-58
2022/08/30 03:00:55;;;;;;;38.85;20.55;;;17.90;99.90;;;;;;5074176;28;20031;-58
2022/08/30 03:03:21;;;;;;;36.08;20.10;;;17.90;99.90;;;;;;5074391;28;20550;-58
2022/08/30 03:05:47;;;;;;;36.83;20.75;;;17.90;99.90;;;;;;5074659;28;20032;-58
2022/08/30 03:08:13;;;;;;;30.58;19.65;;;17.90;99.90;;;;;;5074320;28;20040;-58
2022/08/30 03:10:39;;;;;;;25.15;17.42;;;17.90;99.90;;;;;;5074367;28;20037;-58
2022/08/30 03:13:06;;;;;;;26.48;19.92;;;18.00;99.90;;;;;;5074373;28;20028;-58
2022/08/30 03:15:34;;;;;;;27.42;19.38;;;18.00;99.90;;;;;;5074324;28;20032;-58
2022/08/30 03:18:00;;;;;;;24.25;18.95;;;17.80;99.90;;;;;;5074307;28;20055;-58
2022/08/30 03:20:27;;;;;;;28.23;20.02;;;17.80;99.90;;;;;;5074310;28;20032;-58
2022/08/30 03:22:54;;;;;;;25.90;19.23;;;17.80;99.90;;;;;;5074220;28;20485;-58
2022/08/30 03:25:21;;;;;;;30.73;19.45;;;17.80;99.90;;;;;;5074206;28;20048;-58
2022/08/30 03:27:49;;;;;;;30.23;19.58;;;17.80;99.90;;;;;;5074241;28;20029;-58
2022/08/30 03:30:16;;;;;;;24.13;18.77;;;17.80;99.90;;;;;;5074143;28;20056;-58
2022/08/30 03:32:42;;;;;;;37.95;19.38;;;17.80;99.90;;;;;;5074190;28;20025;-58
2022/08/30 03:35:08;;;;;;;34.20;19.77;;;17.80;99.90;;;;;;5074323;28;20036;-58
2022/08/30 03:37:35;;;;;;;32.10;21.98;;;17.80;99.90;;;;;;5073795;28;20029;-58
2022/08/30 03:40:03;;;;;;;30.00;19.25;;;17.70;99.90;;;;;;5074148;28;20031;-58
2022/08/30 03:42:28;;;;;;;28.20;18.75;;;17.80;99.90;;;;;;5074073;28;20029;-58
2022/08/30 03:44:54;;;;;;;30.98;19.95;;;17.80;99.90;;;;;;5073997;28;20024;-58
2022/08/30 03:47:20;;;;;;;29.00;20.17;;;17.70;99.90;;;;;;5074152;28;20037;-58
2022/08/30 03:49:46;;;;;;;29.80;20.52;;;17.80;99.90;;;;;;5073739;28;20056;-58
2022/08/30 03:52:12;;;;;;;29.67;20.85;;;17.70;99.90;;;;;;5073864;28;20154;-58
2022/08/30 03:54:39;;;;;;;25.58;20.23;;;17.70;99.90;;;;;;5074106;28;20035;-58
2022/08/30 03:57:05;;;;;;;28.48;19.45;;;17.80;99.90;;;;;;5073640;28;20029;-58
2022/08/30 03:59:32;;;;;;;23.00;19.25;;;17.70;99.90;;;;;;5074160;28;20044;-58
2022/08/30 04:01:58;;;;;;;25.48;18.92;;;17.70;99.90;;;;;;5073750;28;20033;-58
2022/08/30 04:04:24;;;;;;;27.85;19.92;;;17.70;99.90;;;;;;5074001;28;20023;-58
2022/08/30 04:06:50;;;;;;;29.85;19.65;;;17.70;99.90;;;;;;5073715;28;20029;-58
2022/08/30 04:09:17;;;;;;;29.67;18.85;;;17.70;99.90;;;;;;5073864;28;20043;-58
2022/08/30 04:11:43;;;;;;;24.95;18.15;;;17.70;99.90;;;;;;5073658;28;20458;-58
2022/08/30 04:14:09;;;;;;;26.52;19.70;;;17.70;99.90;;;;;;5073606;28;20090;-58
2022/08/30 04:16:35;;;;;;;26.38;19.52;;;17.70;99.90;;;;;;5073882;28;20040;-58
2022/08/30 04:19:01;;;;;;;26.20;18.35;;;17.70;99.90;;;;;;5073497;28;20041;-58
2022/08/30 04:21:27;;;;;;;34.20;20.10;;;17.70;99.90;;;;;;5073552;28;20050;-58
2022/08/30 04:23:53;;;;;;;29.02;20.75;;;17.60;99.90;;;;;;5075154;28;20082;-58
2022/08/30 04:26:19;;;;;;;30.88;18.77;;;17.60;99.90;;;;;;5077201;28;20032;-58
2022/08/30 04:28:45;;;;;;;32.28;20.20;;;17.60;99.90;;;;;;5059328;28;20035;-58
2022/08/30 04:31:14;;;;;;;27.15;19.77;;;17.60;99.90;;;;;;5077391;28;20025;-58
2022/08/30 04:33:40;;;;;;;28.27;19.77;;;17.60;99.90;;;;;;5077147;28;20024;-58
2022/08/30 04:36:08;;;;;;;29.73;19.83;;;17.80;99.90;;;;;;5077101;28;20028;-58
2022/08/30 04:38:35;;;;;;;31.13;20.13;;;17.80;99.90;;;;;;5077183;28;20090;-58
2022/08/30 04:41:02;;;;;;;29.52;19.27;;;17.70;99.90;;;;;;5076935;28;20162;-58
2022/08/30 04:43:28;;;;;;;27.38;18.88;;;17.80;99.90;;;;;;5076935;28;20023;-58
2022/08/30 04:45:55;;;;;;;31.30;21.60;;;17.70;99.90;;;;;;5077087;28;20374;-58
2022/08/30 04:48:22;;;;;;;28.00;18.10;;;17.70;99.90;;;;;;5076725;28;20028;-58
2022/08/30 04:50:48;;;;;;;27.23;19.00;;;17.70;99.90;;;;;;5076751;28;20062;-58
2022/08/30 04:53:15;;;;;;;28.15;19.10;;;17.70;99.90;;;;;;5076784;28;20028;-58
2022/08/30 04:55:42;;;;;;;29.52;19.40;;;17.70;99.90;;;;;;5076489;28;20035;-58
2022/08/30 04:58:09;;;;;;;33.95;18.98;;;17.80;99.90;;;;;;5076940;28;20037;-58
2022/08/30 05:00:36;;;;;;;33.22;19.83;;;17.80;99.90;;;;;;5076805;28;20072;-58
2022/08/30 05:03:03;;;;;;;32.72;18.50;;;17.80;99.90;;;;;;5076998;28;20386;-58
2022/08/30 05:05:38;;;;;;;32.58;18.63;;;17.90;99.90;;;;;;5076973;28;20478;-58
2022/08/30 05:08:06;;;;;;;28.73;18.80;;;18.00;99.90;;;;;;5076530;28;20036;-58
2022/08/30 05:10:33;;;;;;;34.33;18.83;;;18.10;99.90;;;;;;5076250;28;20349;-58
2022/08/30 05:12:59;;;;;;;38.38;19.15;;;18.10;99.90;;;;;;5076312;28;20038;-58
2022/08/30 05:15:25;;;;;;;30.10;17.55;;;18.10;99.90;;;;;;5076436;28;20024;-58
2022/08/30 05:17:51;;;;;;;39.30;19.25;;;18.10;99.90;;;;;;5076059;28;20025;-58
2022/08/30 05:20:17;;;;;;;36.13;18.38;;;18.20;99.90;;;;;;5074272;28;20385;-58
2022/08/30 05:22:49;;;;;;;37.22;18.23;;;18.20;99.90;;;;;;5062951;28;20029;-58
2022/08/30 05:25:21;;;;;;;38.08;17.38;;;18.30;99.90;;;;;;5068041;28;20031;-58
2022/08/30 05:27:47;;;;;;;38.88;18.40;;;18.30;99.90;;;;;;5069003;28;20043;-58
2022/08/30 05:30:15;;;;;;;66.60;22.02;;;18.40;99.90;;;;;;5074545;28;20054;-58
2022/08/30 05:32:41;;;;;;;66.72;23.30;;;18.50;99.90;;;;;;5075796;28;20036;-58
2022/08/30 05:35:09;;;;;;;59.42;23.35;;;18.50;99.90;;;;;;5075776;28;20028;-58
2022/08/30 05:37:36;;;;;;;57.10;22.10;;;18.60;99.90;;;;;;5072275;28;20397;-58
2022/08/30 05:40:04;;;;;;;54.58;22.60;;;18.70;99.90;;;;;;5066653;28;20056;-58
2022/08/30 05:42:30;;;;;;;61.25;23.40;;;18.80;99.90;;;;;;5055412;28;20025;-58
2022/08/30 05:44:56;;;;;;;48.50;20.92;;;18.80;99.90;;;;;;5059803;28;20028;-58
2022/08/30 05:47:22;;;;;;;49.03;21.67;;;19.00;99.90;;;;;;5074940;28;20027;-58
2022/08/30 05:49:48;;;;;;;53.28;22.88;;;19.10;99.90;;;;;;5075342;28;20344;-58
2022/08/30 05:52:17;;;;;;;54.65;23.80;;;19.10;99.90;;;;;;5073717;28;20024;-58
2022/08/30 05:54:44;;;;;;;48.67;22.70;;;19.20;99.90;;;;;;5064528;28;20029;-58
2022/08/30 05:57:11;;;;;;;48.25;23.80;;;19.20;99.90;;;;;;5063242;28;20040;-58
2022/08/30 05:59:39;;;;;;;44.13;23.38;;;19.30;99.90;;;;;;5075203;28;20024;-58
2022/08/30 06:02:06;;;;;;;52.65;23.92;;;19.30;99.90;;;;;;5074022;28;20355;-58
2022/08/30 06:04:32;;;;;;;49.15;22.90;;;19.20;99.90;;;;;;5075277;28;20052;-58
2022/08/30 06:06:58;;;;;;;39.17;23.13;;;19.30;99.90;;;;;;5068899;28;20025;-58
2022/08/30 06:09:23;;;;;;;39.85;22.15;;;19.30;99.90;;;;;;5058272;28;20374;-58
2022/08/30 06:11:49;;;;;;;40.67;20.95;;;19.40;99.90;;;;;;5062533;28;20039;-58
2022/08/30 06:14:15;;;;;;;48.50;24.55;;;19.40;99.90;;;;;;5068653;28;20421;-58
2022/08/30 06:16:44;;;;;;;51.08;22.45;;;19.50;99.90;;;;;;5068665;28;20026;-58
2022/08/30 06:19:11;;;;;;;43.15;23.10;;;19.50;99.90;;;;;;5067211;28;20055;-58
2022/08/30 06:21:39;;;;;;;45.22;21.45;;;19.60;99.90;;;;;;5074029;28;20088;-58
2022/08/30 06:24:10;;;;;;;40.63;22.00;;;19.50;99.90;;;;;;5053942;28;20028;-58
2022/08/30 06:26:40;;;;;;;53.95;21.98;;;19.60;99.90;;;;;;5069118;28;20028;-58
2022/08/30 06:29:07;;;;;;;57.72;23.33;;;19.70;99.90;;;;;;5063110;28;20037;-58
2022/08/30 06:31:33;;;;;;;49.38;21.50;;;19.80;99.90;;;;;;5067374;28;20036;-58
2022/08/30 06:34:03;;;;;;;38.53;20.88;;;20.00;99.90;;;;;;5044747;28;20057;-58
2022/08/30 06:36:30;;;;;;;39.55;22.15;;;19.90;99.90;;;;;;5074808;28;20078;-58
2022/08/30 06:38:57;;;;;;;36.58;21.83;;;20.00;99.90;;;;;;5074314;28;20036;-58
2022/08/30 06:41:29;;;;;;;38.85;20.77;;;20.20;99.90;;;;;;5070084;28;20025;-58
2022/08/30 06:43:59;;;;;;;46.40;21.70;;;20.30;99.90;;;;;;5067486;28;20346;-58
2022/08/30 06:46:28;;;;;;;35.88;18.92;;;20.50;99.90;;;;;;5054786;28;20029;-58
2022/08/30 06:48:55;;;;;;;40.83;20.73;;;20.50;99.90;;;;;;5079605;28;20048;-58
2022/08/30 06:51:25;;;;;;;42.80;20.75;;;20.70;99.90;;;;;;5066169;28;20417;-58
2022/08/30 06:53:52;;;;;;;45.28;20.83;;;21.00;99.90;;;;;;5062017;28;20550;-58
2022/08/30 06:56:19;;;;;;;42.58;20.65;;;21.30;99.90;;;;;;5061956;28;20060;-58
2022/08/30 06:58:47;;;;;;;36.40;19.10;;;21.50;99.90;;;;;;5065053;28;20083;-58
2022/08/30 07:01:16;;;;;;;44.03;20.17;;;21.70;99.90;;;;;;5058519;28;20012;-58
2022/08/30 07:03:43;;;;;;;42.70;20.95;;;21.90;99.90;;;;;;5066614;28;20020;-58
2022/08/30 07:06:09;;;;;;;37.22;19.38;;;21.90;99.90;;;;;;5068071;28;20446;-58
2022/08/30 07:08:36;;;;;;;37.47;19.75;;;22.20;99.90;;;;;;5062590;28;20028;-58
2022/08/30 07:11:04;;;;;;;44.60;22.13;;;22.40;99.90;;;;;;5062451;28;20056;-58
2022/08/30 07:13:31;;;;;;;37.78;20.60;;;22.80;99.90;;;;;;5069737;28;20061;-58
2022/08/30 07:15:57;;;;;;;35.50;20.52;;;22.80;99.90;;;;;;5070397;28;20059;-58
2022/08/30 07:18:57;;;;;;;34.30;19.02;;;22.70;99.90;;;;;;5062381;28;20037;-58
2022/08/30 07:21:20;;;;;;;33.20;18.58;;;22.70;99.90;;;;;;5063174;28;20047;-58
2022/08/30 07:23:50;;;;;;;49.67;21.67;;;22.90;99.90;;;;;;5068858;28;20029;-58
2022/08/30 07:26:20;;;;;;;37.45;20.92;;;23.30;99.90;;;;;;5087065;28;20023;-58
2022/08/30 07:28:46;;;;;;;43.25;20.88;;;23.50;99.90;;;;;;5056054;28;20429;-58
2022/08/30 07:31:14;;;;;;;45.28;21.80;;;23.80;99.90;;;;;;5063914;28;20024;-58
2022/08/30 07:33:40;;;;;;;41.40;20.10;;;24.10;99.90;;;;;;5079998;28;20168;-58
2022/08/30 07:36:07;;;;;;;44.53;20.67;;;24.10;99.90;;;;;;5064522;28;20032;-58
2022/08/30 07:38:33;;;;;;;39.38;20.55;;;24.00;99.90;;;;;;5090272;28;20470;-58
2022/08/30 07:41:00;;;;;;;38.58;20.48;;;24.50;99.90;;;;;;5093114;28;20023;-58
2022/08/30 07:43:31;;;;;;;54.42;26.15;;;24.90;99.90;;;;;;5069463;28;20040;-58
2022/08/30 07:46:06;;;;;;;62.80;27.58;;;24.90;99.90;;;;;;5093608;28;20024;-58
2022/08/30 07:48:33;;;;;;;66.93;28.27;;;25.20;99.90;;;;;;5072326;28;20082;-58
2022/08/30 07:50:59;;;;;;;64.35;29.88;;;25.20;99.10;;;;;;5071967;28;20052;-59
2022/08/30 07:53:25;;;;;;;63.47;26.05;;;25.30;98.50;;;;;;5075973;28;20111;-59
2022/08/30 07:55:51;;;;;;;65.40;28.77;;;25.40;99.90;;;;;;5072873;28;20024;-59
2022/08/30 07:58:18;;;;;;;70.07;27.30;;;25.60;97.70;;;;;;5073969;28;20164;-58
2022/08/30 08:00:44;;;;;;;67.65;28.45;;;25.50;98.20;;;;;;5094842;28;20098;-59
2022/08/30 08:03:10;;;;;;;72.40;28.70;;;25.50;97.50;;;;;;5068980;28;20114;-58
2022/08/30 08:05:38;;;;;;;61.53;28.35;;;25.30;97.80;;;;;;5086620;28;20081;-59
2022/08/30 08:08:04;;;;;;;64.70;28.52;;;25.40;98.60;;;;;;5088936;28;20065;-59
2022/08/30 08:10:32;;;;;;;65.13;27.48;;;25.50;98.90;;;;;;5077955;28;20470;-59
2022/08/30 08:12:59;;;;;;;72.80;31.45;;;25.70;98.40;;;;;;5069667;28;20035;-59
2022/08/30 08:15:27;;;;;;;76.57;31.58;;;25.90;98.40;;;;;;5076808;28;20040;-59
2022/08/30 08:17:54;;;;;;;70.72;31.27;;;25.90;96.80;;;;;;5085507;28;20478;-59
2022/08/30 08:20:20;;;;;;;78.97;36.08;;;25.70;96.30;;;;;;5077050;28;20028;-59
2022/08/30 08:22:46;;;;;;;69.22;31.40;;;25.90;98.10;;;;;;5090576;28;20031;-59
2022/08/30 08:25:16;;;;;;;67.38;32.75;;;26.40;97.10;;;;;;5075843;28;20124;-58
2022/08/30 08:27:42;;;;;;;77.68;33.78;;;27.00;95.70;;;;;;5085507;28;20373;-59
2022/08/30 08:30:08;;;;;;;66.28;29.17;;;27.30;93.90;;;;;;5096684;28;20101;-59
2022/08/30 08:32:34;;;;;;;55.13;28.20;;;27.70;92.50;;;;;;5083610;28;20414;-59
2022/08/30 08:35:01;;;;;;;67.90;26.95;;;27.90;93.50;;;;;;5072063;28;20024;-59
2022/08/30 08:37:27;;;;;;;59.97;27.45;;;28.50;90.30;;;;;;5077394;28;20032;-59
2022/08/30 08:39:54;;;;;;;50.88;25.60;;;28.40;89.00;;;;;;5067679;28;20124;-59
2022/08/30 08:42:35;;;;;;;66.70;27.42;;;28.50;90.00;;;;;;5087748;28;20059;-59
2022/08/30 08:45:11;;;;;;;50.45;23.90;;;28.90;86.40;;;;;;5052300;28;20029;-59
2022/08/30 08:47:45;;;;;;;49.60;24.50;;;29.00;83.70;;;;;;5061126;28;20029;-59
2022/08/30 08:50:16;;;;;;;52.65;25.08;;;29.00;83.50;;;;;;5067257;28;20048;-59
2022/08/30 08:55:34;;;;;;;50.10;24.45;;;29.80;80.20;;;;;;5070544;28;20474;-59
2022/08/30 08:58:00;;;;;;;49.55;24.73;;;30.00;77.90;;;;;;5085037;28;20040;-59
2022/08/30 09:00:28;;;;;;;52.00;22.17;;;29.50;78.20;;;;;;5073024;28;20273;-59
2022/08/30 09:03:00;;;;;;;44.83;22.52;;;29.90;77.30;;;;;;5066847;28;20043;-59
2022/08/30 09:05:36;;;;;;;56.08;25.75;;;29.70;74.90;;;;;;5076180;28;20028;-59
2022/08/30 09:08:06;;;;;;;40.85;21.13;;;30.00;76.00;;;;;;5076211;28;20428;-59
2022/08/30 09:10:33;;;;;;;50.83;23.88;;;29.20;74.30;;;;;;5075284;28;20109;-59
2022/08/30 09:13:00;;;;;;;46.95;20.15;;;29.30;80.10;;;;;;5075366;28;20028;-59
2022/08/30 09:15:29;;;;;;;61.13;25.77;;;29.80;73.50;;;;;;5065801;28;20032;-59
2022/08/30 09:17:58;;;;;;;55.17;23.98;;;30.20;71.70;;;;;;5074121;28;20029;-59
2022/08/30 09:20:36;;;;;;;45.90;21.03;;;30.00;72.10;;;;;;5063783;28;20028;-59
2022/08/30 09:23:22;;;;;;;44.70;20.55;;;30.10;71.10;;;;;;5073579;28;20159;-60
2022/08/30 09:26:00;;;;;;;48.47;21.85;;;30.00;71.30;;;;;;5062183;28;20596;-59
2022/08/30 09:28:29;;;;;;;52.42;21.85;;;30.50;68.20;;;;;;5066296;28;20032;-60
2022/08/30 09:31:16;;;;;;;43.50;19.65;;;30.80;67.50;;;;;;5087054;28;20052;-59
2022/08/30 09:33:53;;;;;;;72.00;23.58;;;30.90;65.50;;;;;;5073853;28;20063;-59
2022/08/30 09:36:25;;;;;;;50.10;19.88;;;30.90;65.60;;;;;;5072350;28;20024;-59
2022/08/30 09:39:03;;;;;;;44.17;19.17;;;31.30;66.50;;;;;;5077900;28;20036;-60
2022/08/30 09:41:41;;;;;;;40.75;17.20;;;31.30;63.20;;;;;;5064111;28;20024;-60
2022/08/30 09:44:18;;;;;;;47.08;20.25;;;31.80;60.30;;;;;;5082082;28;20020;-60
2022/08/30 09:46:55;;;;;;;38.30;19.10;;;31.90;60.70;;;;;;5093048;28;20085;-60
2022/08/30 09:49:44;;;;;;;35.22;17.13;;;31.80;61.80;;;;;;5077634;28;20059;-59
2022/08/30 09:52:48;;;;;;;43.10;19.15;;;31.50;59.70;;;;;;5076754;28;20029;-59
2022/08/30 09:55:20;;;;;;;36.72;17.52;;;31.50;62.30;;;;;;5075031;28;20039;-60
2022/08/30 09:57:57;;;;;;;39.83;17.83;;;31.80;58.20;;;;;;5075076;28;20035;-60
2022/08/30 10:00:27;;;;;;;40.63;17.33;;;31.90;60.60;;;;;;5077830;28;20103;-60
2022/08/30 10:03:18;;;;;;;36.53;17.80;;;32.20;60.20;;;;;;5061815;28;20021;-60
2022/08/30 10:06:00;;;;;;;38.75;17.17;;;32.60;58.50;;;;;;5066792;28;20052;-60
2022/08/30 10:08:29;;;;;;;41.45;18.42;;;32.80;60.70;;;;;;5080683;28;20038;-60
2022/08/30 10:11:19;;;;;;;42.42;17.45;;;32.50;56.90;;;;;;5095534;28;20092;-60
2022/08/30 10:13:58;;;;;;;35.10;17.70;;;32.50;57.60;;;;;;5092006;28;20020;-60
2022/08/30 10:16:33;;;;;;;41.95;19.38;;;32.80;56.20;;;;;;5078004;28;20485;-60
2022/08/30 10:19:22;;;;;;;42.28;18.30;;;33.00;56.80;;;;;;5070095;28;20386;-60
2022/08/30 10:22:00;;;;;;;39.13;18.23;;;32.90;56.60;;;;;;5062407;28;20029;-60
2022/08/30 10:24:39;;;;;;;46.80;20.60;;;33.20;55.40;;;;;;5074849;28;20024;-60
2022/08/30 10:27:14;;;;;;;42.03;20.10;;;32.50;57.20;;;;;;5086248;28;20039;-60
2022/08/30 10:29:52;;;;;;;46.05;20.63;;;32.20;56.50;;;;;;5085537;28;20090;-60
2022/08/30 10:32:22;;;;;;;47.10;20.02;;;32.00;56.10;;;;;;5054714;28;20036;-60
2022/08/30 10:35:06;;;;;;;38.60;19.50;;;31.60;58.30;;;;;;5069607;28;20028;-60
2022/08/30 10:37:41;;;;;;;38.55;19.73;;;31.10;59.20;;;;;;5073514;28;20027;-60
2022/08/30 10:43:08;;;;;;;37.92;16.00;;;30.40;62.10;;;;;;5080475;28;20330;-60
2022/08/30 10:45:43;;;;;;;43.50;16.65;;;28.50;72.90;;;;;;5067298;28;20105;-60
2022/08/30 10:48:34;;;;;;;35.45;15.07;;;28.80;84.20;;;;;;5080715;28;20157;-59
2022/08/30 10:51:08;;;;;;;28.50;12.70;;;27.90;85.50;;;;;;5073923;28;20478;-60
2022/08/30 10:53:43;;;;;;;43.25;17.98;;;27.90;91.80;;;;;;5059325;28;20151;-60
2022/08/30 10:56:15;;;;;;;31.92;15.02;;;27.10;94.80;;;;;;5065182;28;20099;-59
2022/08/30 10:58:41;;;;;;;27.88;13.43;;;26.80;94.80;;;;;;5063431;28;20031;-59
2022/08/30 11:01:44;;;;;;;28.00;12.65;;;26.20;99.90;;;;;;5065081;28;20036;-59
2022/08/30 11:04:37;;;;;;;24.70;11.80;;;25.80;99.90;;;;;;5056905;28;20044;-59
2022/08/30 11:07:15;;;;;;;26.70;11.70;;;25.10;99.90;;;;;;5063643;28;20028;-59
2022/08/30 11:10:05;;;;;;;34.60;11.70;;;24.50;99.90;;;;;;5059628;28;20017;-59
2022/08/30 11:12:49;;;;;;;27.63;12.55;;;24.50;99.90;;;;;;5069225;28;20068;-58
2022/08/30 11:15:24;;;;;;;20.05;13.35;;;23.90;99.90;;;;;;5068936;28;20470;-58
2022/08/30 11:18:12;;;;;;;19.65;11.60;;;23.50;99.90;;;;;;5064030;28;20028;-58
2022/08/30 11:20:49;;;;;;;22.60;10.80;;;23.40;99.90;;;;;;5059845;28;20029;-58
2022/08/30 11:23:20;;;;;;;20.65;10.65;;;23.40;99.90;;;;;;5069460;28;20068;-58
2022/08/30 11:26:09;;;;;;;22.75;11.45;;;23.40;99.90;;;;;;5067516;28;20443;-58
2022/08/30 11:28:35;;;;;;;21.40;12.85;;;23.60;99.90;;;;;;5067314;28;20028;-58
2022/08/30 11:31:20;;;;;;;19.73;10.85;;;23.60;99.90;;;;;;5065016;28;20035;-58
2022/08/30 11:33:47;;;;;;;21.48;11.65;;;23.50;99.90;;;;;;5090515;28;20134;-58
2022/08/30 11:36:31;;;;;;;16.13;10.98;;;23.30;99.90;;;;;;5084657;28;20367;-58
2022/08/30 11:39:00;;;;;;;14.30;11.32;;;23.50;99.90;;;;;;5079358;28;20035;-58
2022/08/30 11:41:45;;;;;;;19.70;12.05;;;23.30;99.90;;;;;;5093009;28;20020;-58
2022/08/30 11:44:20;;;;;;;18.30;13.48;;;23.50;99.90;;;;;;5071250;28;20475;-58
2022/08/30 11:46:48;;;;;;;21.10;14.90;;;23.60;99.90;;;;;;5071613;28;20108;-58
2022/08/30 11:49:17;;;;;;;19.98;13.93;;;23.60;99.90;;;;;;5074451;28;20040;-58
2022/08/30 11:52:11;;;;;;;18.35;14.88;;;23.20;99.90;;;;;;5078032;28;20060;-58
2022/08/30 11:55:02;;;;;;;19.63;15.10;;;23.30;99.90;;;;;;5074505;28;20032;-58
2022/08/30 11:57:36;;;;;;;20.88;16.45;;;23.20;99.90;;;;;;5069797;28;20025;-58
2022/08/30 12:00:33;;;;;;;24.73;16.55;;;23.10;99.90;;;;;;5077391;28;20052;-58
2022/08/30 12:03:02;;;;;;;21.52;16.98;;;23.20;99.90;;;;;;5060402;28;20072;-58
2022/08/30 12:05:39;;;;;;;28.63;16.63;;;23.30;99.90;;;;;;5067889;28;20048;-58
2022/08/30 12:08:25;;;;;;;21.38;17.30;;;23.50;99.90;;;;;;5069369;28;20020;-58
2022/08/30 12:10:58;;;;;;;20.65;16.70;;;23.60;99.90;;;;;;5045877;28;20151;-58
2022/08/30 12:13:36;;;;;;;21.05;17.02;;;23.80;99.90;;;;;;5077086;28;20059;-58
2022/08/30 12:16:13;;;;;;;22.20;17.50;;;23.90;99.90;;;;;;5064147;28;20029;-58
2022/08/30 12:18:45;;;;;;;22.80;16.92;;;24.00;99.90;;;;;;5064020;28;20027;-58
2022/08/30 12:21:40;;;;;;;21.52;17.83;;;24.20;99.90;;;;;;5064593;28;20047;-58
2022/08/30 12:24:15;;;;;;;21.13;16.58;;;24.30;99.90;;;;;;5060057;28;20116;-58
2022/08/30 12:26:43;;;;;;;20.92;16.40;;;24.30;99.90;;;;;;5067281;28;20028;-58
2022/08/30 12:29:21;;;;;;;23.67;18.35;;;24.40;99.90;;;;;;5086581;28;20016;-58
2022/08/30 12:32:02;;;;;;;23.55;20.13;;;24.50;99.90;;;;;;5071060;28;20042;-58
2022/08/30 12:34:33;;;;;;;28.13;19.65;;;24.70;99.90;;;;;;5069858;28;20028;-58
2022/08/30 12:37:07;;;;;;;27.08;19.73;;;24.50;99.90;;;;;;5076641;28;20068;-58
2022/08/30 12:39:37;;;;;;;38.05;20.83;;;24.70;99.90;;;;;;5076945;28;20448;-59
2022/08/30 12:42:29;;;;;;;;;;;24.70;99.90;;;;;;5077148;28;20040;-58
2022/08/30 12:45:01;;;;;;;46.40;21.75;;;24.80;99.90;;;;;;5074502;28;19939;-58
2022/08/30 12:47:39;;;;;;;37.67;19.45;;;25.00;99.90;;;;;;5076884;28;20030;-59
2022/08/30 12:50:07;;;;;;;39.90;20.23;;;25.10;99.90;;;;;;5070173;28;20067;-58